sensor_id;sensor_type;location;lat;lon;timestamp;temperature;humidity
1015;DHT22;8170;48.118;11.628;2023-04-24T00:00:17;11.00;99.90
1015;DHT22;8170;48.118;11.628;2023-04-24T00:01:19;10.90;99.90
1015;DHT22;8170;48.118;11.628;2023-04-24T00:02:23;10.90;99.90
1015;DHT22;8170;48.118;11.628;2023-04-24T00:03:26;10.90;99.90
1015;DHT22;8170;48.118;11.628;2023-04-24T00:04:30;10.90;99.90
1015;DHT22;8170;48.118;11.628;2023-04-24T00:05:33;10.90;99.90
1015;DHT22;8170;48.118;11.628;2023-04-24T00:06:38;10.90;99.90
1015;DHT22;8170;48.118;11.628;2023-04-24T00:07:40;10.90;99.90
1015;DHT22;8170;48.118;11.628;2023-04-24T00:08:43;10.90;99.90
1015;DHT22;8170;48.118;11.628;2023-04-24T00:09:45;10.80;99.90
1015;DHT22;8170;48.118;11.628;2023-04-24T00:10:48;10.80;99.90
1015;DHT22;8170;48.118;11.628;2023-04-24T00:11:51;10.80;99.90
1015;DHT22;8170;48.118;11.628;2023-04-24T00:12:54;10.90;99.90
1015;DHT22;8170;48.118;11.628;2023-04-24T00:13:56;10.90;99.90
1015;DHT22;8170;48.118;11.628;2023-04-24T00:15:00;10.90;99.90
1015;DHT22;8170;48.118;11.628;2023-04-24T00:16:02;10.80;99.90
1015;DHT22;8170;48.118;11.628;2023-04-24T00:17:05;10.90;99.90
1015;DHT22;8170;48.118;11.628;2023-04-24T00:18:07;10.80;99.90
1015;DHT22;8170;48.118;11.628;2023-04-24T00:19:11;10.90;99.90
1015;DHT22;8170;48.118;11.628;2023-04-24T00:20:13;10.80;99.90
1015;DHT22;8170;48.118;11.628;2023-04-24T00:21:16;10.80;99.90
1015;DHT22;8170;48.118;11.628;2023-04-24T00:22:20;10.80;99.90
1015;DHT22;8170;48.118;11.628;2023-04-24T00:23:23;10.80;99.90
1015;DHT22;8170;48.118;11.628;2023-04-24T00:24:26;10.80;99.90
1015;DHT22;8170;48.118;11.628;2023-04-24T00:25:29;10.80;99.90
1015;DHT22;8170;48.118;11.628;2023-04-24T00:26:31;10.80;99.90
1015;DHT22;8170;48.118;11.628;2023-04-24T00:27:34;10.80;99.90
1015;DHT22;8170;48.118;11.628;2023-04-24T00:28:38;10.80;99.90
1015;DHT22;8170;48.118;11.628;2023-04-24T00:29:41;10.80;99.90
1015;DHT22;8170;48.118;11.628;2023-04-24T00:30:44;10.80;99.90
1015;DHT22;8170;48.118;11.628;2023-04-24T00:31:47;10.80;99.90
1015;DHT22;8170;48.118;11.628;2023-04-24T00:32:50;10.80;99.90
1015;DHT22;8170;48.118;11.628;2023-04-24T00:33:53;10.80;99.90
1015;DHT22;8170;48.118;11.628;2023-04-24T00:34:56;10.80;99.90
1015;DHT22;8170;48.118;11.628;2023-04-24T00:35:58;10.80;99.90
1015;DHT22;8170;48.118;11.628;2023-04-24T00:37:03;10.80;99.90
1015;DHT22;8170;48.118;11.628;2023-04-24T00:38:07;10.70;99.90
1015;DHT22;8170;48.118;11.628;2023-04-24T00:39:10;10.70;99.90
1015;DHT22;8170;48.118;11.628;2023-04-24T00:40:12;10.70;99.90
1015;DHT22;8170;48.118;11.628;2023-04-24T00:41:16;10.70;99.90
1015;DHT22;8170;48.118;11.628;2023-04-24T00:42:18;10.70;99.90
1015;DHT22;8170;48.118;11.628;2023-04-24T00:43:22;10.70;99.90
1015;DHT22;8170;48.118;11.628;2023-04-24T00:44:24;10.70;99.90
1015;DHT22;8170;48.118;11.628;2023-04-24T00:45:27;10.60;99.90
1015;DHT22;8170;48.118;11.628;2023-04-24T00:46:31;10.60;99.90
1015;DHT22;8170;48.118;11.628;2023-04-24T00:47:34;10.60;99.90
1015;DHT22;8170;48.118;11.628;2023-04-24T00:48:37;10.60;99.90
1015;DHT22;8170;48.118;11.628;2023-04-24T00:49:41;10.60;99.90
1015;DHT22;8170;48.118;11.628;2023-04-24T00:50:44;10.60;99.90
1015;DHT22;8170;48.118;11.628;2023-04-24T00:51:49;10.60;99.90
1015;DHT22;8170;48.118;11.628;2023-04-24T00:52:52;10.60;99.90
1015;DHT22;8170;48.118;11.628;2023-04-24T00:53:57;10.50;99.90
1015;DHT22;8170;48.118;11.628;2023-04-24T00:54:59;10.50;99.90
1015;DHT22;8170;48.118;11.628;2023-04-24T00:56:04;10.50;99.90
1015;DHT22;8170;48.118;11.628;2023-04-24T00:57:06;10.50;99.90
1015;DHT22;8170;48.118;11.628;2023-04-24T00:58:09;10.50;99.90
1015;DHT22;8170;48.118;11.628;2023-04-24T00:59:12;10.50;99.90
1015;DHT22;8170;48.118;11.628;2023-04-24T01:00:15;10.50;99.90
1015;DHT22;8170;48.118;11.628;2023-04-24T01:01:19;10.50;99.90
1015;DHT22;8170;48.118;11.628;2023-04-24T01:02:24;10.50;99.90
1015;DHT22;8170;48.118;11.628;2023-04-24T01:03:29;10.50;99.90
1015;DHT22;8170;48.118;11.628;2023-04-24T01:04:34;10.50;99.90
1015;DHT22;8170;48.118;11.628;2023-04-24T01:05:36;10.50;99.90
1015;DHT22;8170;48.118;11.628;2023-04-24T01:06:40;10.50;99.90
1015;DHT22;8170;48.118;11.628;2023-04-24T01:07:45;10.40;99.90
1015;DHT22;8170;48.118;11.628;2023-04-24T01:08:49;10.40;99.90
1015;DHT22;8170;48.118;11.628;2023-04-24T01:09:53;10.30;99.90
1015;DHT22;8170;48.118;11.628;2023-04-24T01:10:57;10.30;99.90
1015;DHT22;8170;48.118;11.628;2023-04-24T01:11:59;10.30;99.90
1015;DHT22;8170;48.118;11.628;2023-04-24T01:13:03;10.40;99.90
1015;DHT22;8170;48.118;11.628;2023-04-24T01:14:06;10.40;99.90
1015;DHT22;8170;48.118;11.628;2023-04-24T01:15:10;10.40;99.90
1015;DHT22;8170;48.118;11.628;2023-04-24T01:16:13;10.30;99.90
1015;DHT22;8170;48.118;11.628;2023-04-24T01:17:15;10.30;99.90
1015;DHT22;8170;48.118;11.628;2023-04-24T01:18:19;10.30;99.90
1015;DHT22;8170;48.118;11.628;2023-04-24T01:19:24;10.20;99.90
1015;DHT22;8170;48.118;11.628;2023-04-24T01:20:27;10.20;99.90
1015;DHT22;8170;48.118;11.628;2023-04-24T01:21:29;10.30;99.90
1015;DHT22;8170;48.118;11.628;2023-04-24T01:22:34;10.30;99.90
1015;DHT22;8170;48.118;11.628;2023-04-24T01:23:36;10.20;99.90
1015;DHT22;8170;48.118;11.628;2023-04-24T01:24:40;10.20;99.90
1015;DHT22;8170;48.118;11.628;2023-04-24T01:25:42;10.20;99.90
1015;DHT22;8170;48.118;11.628;2023-04-24T01:26:46;10.20;99.90
1015;DHT22;8170;48.118;11.628;2023-04-24T01:27:48;10.20;99.90
1015;DHT22;8170;48.118;11.628;2023-04-24T01:28:52;10.20;99.90
1015;DHT22;8170;48.118;11.628;2023-04-24T01:29:54;10.20;99.90
1015;DHT22;8170;48.118;11.628;2023-04-24T01:30:58;10.20;99.90
1015;DHT22;8170;48.118;11.628;2023-04-24T01:32:01;10.10;99.90
1015;DHT22;8170;48.118;11.628;2023-04-24T01:33:04;10.10;99.90
1015;DHT22;8170;48.118;11.628;2023-04-24T01:34:07;10.20;99.90
1015;DHT22;8170;48.118;11.628;2023-04-24T01:35:10;10.20;99.90
1015;DHT22;8170;48.118;11.628;2023-04-24T01:36:13;10.10;99.90
1015;DHT22;8170;48.118;11.628;2023-04-24T01:37:16;10.10;99.90
1015;DHT22;8170;48.118;11.628;2023-04-24T01:38:20;10.10;99.90
1015;DHT22;8170;48.118;11.628;2023-04-24T01:39:23;10.10;99.90
1015;DHT22;8170;48.118;11.628;2023-04-24T01:40:28;10.10;99.90
1015;DHT22;8170;48.118;11.628;2023-04-24T01:41:32;10.10;99.90
1015;DHT22;8170;48.118;11.628;2023-04-24T01:42:34;10.10;99.90
1015;DHT22;8170;48.118;11.628;2023-04-24T01:43:38;10.10;99.90
1015;DHT22;8170;48.118;11.628;2023-04-24T01:44:40;10.10;99.90
1015;DHT22;8170;48.118;11.628;2023-04-24T01:45:44;10.10;99.90
1015;DHT22;8170;48.118;11.628;2023-04-24T01:46:46;10.10;99.90
1015;DHT22;8170;48.118;11.628;2023-04-24T01:47:50;10.00;99.90
1015;DHT22;8170;48.118;11.628;2023-04-24T01:48:52;10.00;99.90
1015;DHT22;8170;48.118;11.628;2023-04-24T01:49:56;10.00;99.90
1015;DHT22;8170;48.118;11.628;2023-04-24T01:50:59;10.00;99.90
1015;DHT22;8170;48.118;11.628;2023-04-24T01:52:02;10.10;99.90
1015;DHT22;8170;48.118;11.628;2023-04-24T01:53:05;10.10;99.90
1015;DHT22;8170;48.118;11.628;2023-04-24T01:54:09;10.10;99.90
1015;DHT22;8170;48.118;11.628;2023-04-24T01:55:12;10.10;99.90
1015;DHT22;8170;48.118;11.628;2023-04-24T01:56:15;10.00;99.90
1015;DHT22;8170;48.118;11.628;2023-04-24T01:57:17;10.00;99.90
1015;DHT22;8170;48.118;11.628;2023-04-24T01:58:20;10.00;99.90
1015;DHT22;8170;48.118;11.628;2023-04-24T01:59:23;10.00;99.90
1015;DHT22;8170;48.118;11.628;2023-04-24T02:00:28;10.00;99.90
1015;DHT22;8170;48.118;11.628;2023-04-24T02:01:34;10.00;99.90
1015;DHT22;8170;48.118;11.628;2023-04-24T02:02:40;10.00;99.90
1015;DHT22;8170;48.118;11.628;2023-04-24T02:03:43;10.00;99.90
1015;DHT22;8170;48.118;11.628;2023-04-24T02:04:47;10.00;99.90
1015;DHT22;8170;48.118;11.628;2023-04-24T02:05:49;9.90;99.90
1015;DHT22;8170;48.118;11.628;2023-04-24T02:06:52;9.90;99.90
1015;DHT22;8170;48.118;11.628;2023-04-24T02:07:54;9.90;99.90
1015;DHT22;8170;48.118;11.628;2023-04-24T02:08:57;9.90;99.90
1015;DHT22;8170;48.118;11.628;2023-04-24T02:10:00;10.00;99.90
1015;DHT22;8170;48.118;11.628;2023-04-24T02:11:04;9.90;99.90
1015;DHT22;8170;48.118;11.628;2023-04-24T02:12:06;9.90;99.90
1015;DHT22;8170;48.118;11.628;2023-04-24T02:13:09;9.90;99.90
1015;DHT22;8170;48.118;11.628;2023-04-24T02:14:12;9.90;99.90
1015;DHT22;8170;48.118;11.628;2023-04-24T02:15:15;9.90;99.90
1015;DHT22;8170;48.118;11.628;2023-04-24T02:16:17;9.80;99.90
1015;DHT22;8170;48.118;11.628;2023-04-24T02:17:20;9.80;99.90
1015;DHT22;8170;48.118;11.628;2023-04-24T02:18:23;9.80;99.90
1015;DHT22;8170;48.118;11.628;2023-04-24T02:19:26;9.80;99.90
1015;DHT22;8170;48.118;11.628;2023-04-24T02:20:29;9.80;99.90
1015;DHT22;8170;48.118;11.628;2023-04-24T02:21:31;9.90;99.90
1015;DHT22;8170;48.118;11.628;2023-04-24T02:22:34;9.80;99.90
1015;DHT22;8170;48.118;11.628;2023-04-24T02:23:37;9.90;99.90
1015;DHT22;8170;48.118;11.628;2023-04-24T02:24:40;9.80;99.90
1015;DHT22;8170;48.118;11.628;2023-04-24T02:30:15;9.80;99.90
1015;DHT22;8170;48.118;11.628;2023-04-24T02:31:19;9.80;99.90
1015;DHT22;8170;48.118;11.628;2023-04-24T02:32:22;9.80;99.90
1015;DHT22;8170;48.118;11.628;2023-04-24T02:33:25;9.80;99.90
1015;DHT22;8170;48.118;11.628;2023-04-24T02:34:27;9.70;99.90
1015;DHT22;8170;48.118;11.628;2023-04-24T02:35:32;9.70;99.90
1015;DHT22;8170;48.118;11.628;2023-04-24T02:36:34;9.70;99.90
1015;DHT22;8170;48.118;11.628;2023-04-24T02:37:37;9.70;99.90
1015;DHT22;8170;48.118;11.628;2023-04-24T02:38:39;9.80;99.90
1015;DHT22;8170;48.118;11.628;2023-04-24T02:39:43;9.80;99.90
1015;DHT22;8170;48.118;11.628;2023-04-24T02:40:46;9.80;99.90
1015;DHT22;8170;48.118;11.628;2023-04-24T02:41:48;9.80;99.90
1015;DHT22;8170;48.118;11.628;2023-04-24T02:42:51;9.80;99.90
1015;DHT22;8170;48.118;11.628;2023-04-24T02:43:53;9.90;99.90
1015;DHT22;8170;48.118;11.628;2023-04-24T02:44:57;9.80;99.90
1015;DHT22;8170;48.118;11.628;2023-04-24T02:46:00;9.80;99.90
1015;DHT22;8170;48.118;11.628;2023-04-24T02:47:04;9.80;99.90
1015;DHT22;8170;48.118;11.628;2023-04-24T02:48:06;9.80;99.90
1015;DHT22;8170;48.118;11.628;2023-04-24T02:49:09;9.80;99.90
1015;DHT22;8170;48.118;11.628;2023-04-24T02:50:11;9.90;99.90
1015;DHT22;8170;48.118;11.628;2023-04-24T02:51:14;9.90;99.90
1015;DHT22;8170;48.118;11.628;2023-04-24T02:52:17;9.80;99.90
1015;DHT22;8170;48.118;11.628;2023-04-24T02:53:20;9.80;99.90
1015;DHT22;8170;48.118;11.628;2023-04-24T02:54:22;9.90;99.90
1015;DHT22;8170;48.118;11.628;2023-04-24T02:55:25;9.80;99.90
1015;DHT22;8170;48.118;11.628;2023-04-24T02:56:27;9.80;99.90
1015;DHT22;8170;48.118;11.628;2023-04-24T02:57:32;9.80;99.90
1015;DHT22;8170;48.118;11.628;2023-04-24T02:58:35;9.80;99.90
1015;DHT22;8170;48.118;11.628;2023-04-24T02:59:38;9.80;99.90
1015;DHT22;8170;48.118;11.628;2023-04-24T03:00:40;9.80;99.90
1015;DHT22;8170;48.118;11.628;2023-04-24T03:01:45;9.90;99.90
1015;DHT22;8170;48.118;11.628;2023-04-24T03:02:47;9.90;99.90
1015;DHT22;8170;48.118;11.628;2023-04-24T03:03:51;9.90;99.90
1015;DHT22;8170;48.118;11.628;2023-04-24T03:04:54;9.80;99.90
1015;DHT22;8170;48.118;11.628;2023-04-24T03:05:57;9.90;99.90
1015;DHT22;8170;48.118;11.628;2023-04-24T03:07:00;9.90;99.90
1015;DHT22;8170;48.118;11.628;2023-04-24T03:08:03;9.80;99.90
1015;DHT22;8170;48.118;11.628;2023-04-24T03:09:05;9.80;99.90
1015;DHT22;8170;48.118;11.628;2023-04-24T03:10:09;9.80;99.90
1015;DHT22;8170;48.118;11.628;2023-04-24T03:11:11;9.80;99.90
1015;DHT22;8170;48.118;11.628;2023-04-24T03:12:16;9.80;99.90
1015;DHT22;8170;48.118;11.628;2023-04-24T03:13:19;9.80;99.90
1015;DHT22;8170;48.118;11.628;2023-04-24T03:14:22;9.80;99.90
1015;DHT22;8170;48.118;11.628;2023-04-24T03:15:24;9.80;99.90
1015;DHT22;8170;48.118;11.628;2023-04-24T03:16:29;9.80;99.90
1015;DHT22;8170;48.118;11.628;2023-04-24T03:17:32;9.80;99.90
1015;DHT22;8170;48.118;11.628;2023-04-24T03:18:37;9.80;99.90
1015;DHT22;8170;48.118;11.628;2023-04-24T03:19:40;9.80;99.90
1015;DHT22;8170;48.118;11.628;2023-04-24T03:20:46;9.80;99.90
1015;DHT22;8170;48.118;11.628;2023-04-24T03:21:49;9.80;99.90
1015;DHT22;8170;48.118;11.628;2023-04-24T03:22:52;9.80;99.90
1015;DHT22;8170;48.118;11.628;2023-04-24T03:23:55;9.70;99.90
1015;DHT22;8170;48.118;11.628;2023-04-24T03:24:58;9.70;99.90
1015;DHT22;8170;48.118;11.628;2023-04-24T03:26:01;9.70;99.90
1015;DHT22;8170;48.118;11.628;2023-04-24T03:27:04;9.70;99.90
1015;DHT22;8170;48.118;11.628;2023-04-24T03:28:21;9.70;99.90
1015;DHT22;8170;48.118;11.628;2023-04-24T03:29:30;9.70;99.90
1015;DHT22;8170;48.118;11.628;2023-04-24T03:30:33;9.70;99.90
1015;DHT22;8170;48.118;11.628;2023-04-24T03:31:37;9.70;99.90
1015;DHT22;8170;48.118;11.628;2023-04-24T03:32:42;9.70;99.90
1015;DHT22;8170;48.118;11.628;2023-04-24T03:33:47;9.70;99.90
1015;DHT22;8170;48.118;11.628;2023-04-24T03:34:51;9.70;99.90
1015;DHT22;8170;48.118;11.628;2023-04-24T03:35:54;9.70;99.90
1015;DHT22;8170;48.118;11.628;2023-04-24T03:36:57;9.70;99.90
1015;DHT22;8170;48.118;11.628;2023-04-24T03:38:01;9.60;99.90
1015;DHT22;8170;48.118;11.628;2023-04-24T03:39:29;9.60;99.90
1015;DHT22;8170;48.118;11.628;2023-04-24T03:40:32;9.60;99.90
1015;DHT22;8170;48.118;11.628;2023-04-24T03:41:36;9.60;99.90
1015;DHT22;8170;48.118;11.628;2023-04-24T03:42:53;9.60;99.90
1015;DHT22;8170;48.118;11.628;2023-04-24T03:43:56;9.50;99.90
1015;DHT22;8170;48.118;11.628;2023-04-24T03:44:59;9.60;99.90
1015;DHT22;8170;48.118;11.628;2023-04-24T03:46:06;9.60;99.90
1015;DHT22;8170;48.118;11.628;2023-04-24T03:47:15;9.60;99.90
1015;DHT22;8170;48.118;11.628;2023-04-24T03:48:18;9.60;99.90
1015;DHT22;8170;48.118;11.628;2023-04-24T03:49:22;9.60;99.90
1015;DHT22;8170;48.118;11.628;2023-04-24T03:50:24;9.60;99.90
1015;DHT22;8170;48.118;11.628;2023-04-24T03:51:28;9.60;99.90
1015;DHT22;8170;48.118;11.628;2023-04-24T03:52:38;9.60;99.90
1015;DHT22;8170;48.118;11.628;2023-04-24T03:53:41;9.60;99.90
1015;DHT22;8170;48.118;11.628;2023-04-24T03:54:46;9.60;99.90
1015;DHT22;8170;48.118;11.628;2023-04-24T03:55:50;9.60;99.90
1015;DHT22;8170;48.118;11.628;2023-04-24T03:56:52;9.60;99.90
1015;DHT22;8170;48.118;11.628;2023-04-24T03:57:58;9.60;99.90
1015;DHT22;8170;48.118;11.628;2023-04-24T03:59:00;9.60;99.90
1015;DHT22;8170;48.118;11.628;2023-04-24T04:00:06;9.60;99.90
1015;DHT22;8170;48.118;11.628;2023-04-24T04:01:15;9.60;99.90
1015;DHT22;8170;48.118;11.628;2023-04-24T04:02:24;9.50;99.90
1015;DHT22;8170;48.118;11.628;2023-04-24T04:03:28;9.50;99.90
1015;DHT22;8170;48.118;11.628;2023-04-24T04:04:31;9.50;99.90
1015;DHT22;8170;48.118;11.628;2023-04-24T04:05:35;9.50;99.90
1015;DHT22;8170;48.118;11.628;2023-04-24T04:06:37;9.50;99.90
1015;DHT22;8170;48.118;11.628;2023-04-24T04:07:41;9.50;99.90
1015;DHT22;8170;48.118;11.628;2023-04-24T04:08:43;9.50;99.90
1015;DHT22;8170;48.118;11.628;2023-04-24T04:09:47;9.50;99.90
1015;DHT22;8170;48.118;11.628;2023-04-24T04:10:50;9.50;99.90
1015;DHT22;8170;48.118;11.628;2023-04-24T04:11:53;9.50;99.90
1015;DHT22;8170;48.118;11.628;2023-04-24T04:12:58;9.50;99.90
1015;DHT22;8170;48.118;11.628;2023-04-24T04:14:02;9.60;99.90
1015;DHT22;8170;48.118;11.628;2023-04-24T04:15:05;9.60;99.90
1015;DHT22;8170;48.118;11.628;2023-04-24T04:16:09;9.60;99.90
1015;DHT22;8170;48.118;11.628;2023-04-24T04:17:12;9.60;99.90
1015;DHT22;8170;48.118;11.628;2023-04-24T04:18:16;9.60;99.90
1015;DHT22;8170;48.118;11.628;2023-04-24T04:19:20;9.60;99.90
1015;DHT22;8170;48.118;11.628;2023-04-24T04:20:25;9.70;99.90
1015;DHT22;8170;48.118;11.628;2023-04-24T04:21:27;9.70;99.90
1015;DHT22;8170;48.118;11.628;2023-04-24T04:22:41;9.70;99.90
1015;DHT22;8170;48.118;11.628;2023-04-24T04:23:49;9.70;99.90
1015;DHT22;8170;48.118;11.628;2023-04-24T04:24:56;9.70;99.90
1015;DHT22;8170;48.118;11.628;2023-04-24T04:26:00;9.70;99.90
1015;DHT22;8170;48.118;11.628;2023-04-24T04:27:14;9.70;99.90
1015;DHT22;8170;48.118;11.628;2023-04-24T04:28:22;9.70;99.90
1015;DHT22;8170;48.118;11.628;2023-04-24T04:29:26;9.60;99.90
1015;DHT22;8170;48.118;11.628;2023-04-24T04:30:29;9.60;99.90
1015;DHT22;8170;48.118;11.628;2023-04-24T04:31:37;9.70;99.90
1015;DHT22;8170;48.118;11.628;2023-04-24T04:32:44;9.70;99.90
1015;DHT22;8170;48.118;11.628;2023-04-24T04:33:48;9.70;99.90
1015;DHT22;8170;48.118;11.628;2023-04-24T04:34:52;9.70;99.90
1015;DHT22;8170;48.118;11.628;2023-04-24T04:35:57;9.70;99.90
1015;DHT22;8170;48.118;11.628;2023-04-24T04:37:02;9.70;99.90
1015;DHT22;8170;48.118;11.628;2023-04-24T04:38:15;9.70;99.90
1015;DHT22;8170;48.118;11.628;2023-04-24T04:39:27;9.70;99.90
1015;DHT22;8170;48.118;11.628;2023-04-24T04:40:35;9.70;99.90
1015;DHT22;8170;48.118;11.628;2023-04-24T04:41:40;9.70;99.90
1015;DHT22;8170;48.118;11.628;2023-04-24T04:42:44;9.70;99.90
1015;DHT22;8170;48.118;11.628;2023-04-24T04:43:48;9.70;99.90
1015;DHT22;8170;48.118;11.628;2023-04-24T04:44:52;9.70;99.90
1015;DHT22;8170;48.118;11.628;2023-04-24T04:46:00;9.70;99.90
1015;DHT22;8170;48.118;11.628;2023-04-24T04:47:14;9.70;99.90
1015;DHT22;8170;48.118;11.628;2023-04-24T04:48:17;9.70;99.90
1015;DHT22;8170;48.118;11.628;2023-04-24T04:49:20;9.70;99.90
1015;DHT22;8170;48.118;11.628;2023-04-24T04:50:25;9.70;99.90
1015;DHT22;8170;48.118;11.628;2023-04-24T04:51:34;9.60;99.90
1015;DHT22;8170;48.118;11.628;2023-04-24T04:52:37;9.60;99.90
1015;DHT22;8170;48.118;11.628;2023-04-24T04:53:56;9.60;99.90
1015;DHT22;8170;48.118;11.628;2023-04-24T04:54:58;9.60;99.90
1015;DHT22;8170;48.118;11.628;2023-04-24T04:56:21;9.60;99.90
1015;DHT22;8170;48.118;11.628;2023-04-24T04:57:24;9.60;99.90
1015;DHT22;8170;48.118;11.628;2023-04-24T04:58:28;9.70;99.90
1015;DHT22;8170;48.118;11.628;2023-04-24T04:59:33;9.70;99.90
1015;DHT22;8170;48.118;11.628;2023-04-24T05:00:40;9.70;99.90
1015;DHT22;8170;48.118;11.628;2023-04-24T05:01:51;9.70;99.90
1015;DHT22;8170;48.118;11.628;2023-04-24T05:02:55;10.00;99.90
1015;DHT22;8170;48.118;11.628;2023-04-24T05:04:11;10.00;99.90
1015;DHT22;8170;48.118;11.628;2023-04-24T05:05:15;10.10;99.90
1015;DHT22;8170;48.118;11.628;2023-04-24T05:06:20;10.10;99.90
1015;DHT22;8170;48.118;11.628;2023-04-24T05:07:25;10.40;99.90
1015;DHT22;8170;48.118;11.628;2023-04-24T05:08:29;10.40;99.90
1015;DHT22;8170;48.118;11.628;2023-04-24T05:09:33;10.30;99.90
1015;DHT22;8170;48.118;11.628;2023-04-24T05:10:37;10.50;99.90
1015;DHT22;8170;48.118;11.628;2023-04-24T05:11:41;10.40;99.90
1015;DHT22;8170;48.118;11.628;2023-04-24T05:12:43;10.50;99.90
1015;DHT22;8170;48.118;11.628;2023-04-24T05:13:47;10.60;99.90
1015;DHT22;8170;48.118;11.628;2023-04-24T05:14:53;10.70;99.90
1015;DHT22;8170;48.118;11.628;2023-04-24T05:15:57;10.50;99.90
1015;DHT22;8170;48.118;11.628;2023-04-24T05:17:00;10.50;99.90
1015;DHT22;8170;48.118;11.628;2023-04-24T05:18:05;10.50;99.90
1015;DHT22;8170;48.118;11.628;2023-04-24T05:19:08;10.50;99.90
1015;DHT22;8170;48.118;11.628;2023-04-24T05:20:14;10.50;99.90
1015;DHT22;8170;48.118;11.628;2023-04-24T05:21:17;10.50;99.90
1015;DHT22;8170;48.118;11.628;2023-04-24T05:22:26;10.50;99.90
1015;DHT22;8170;48.118;11.628;2023-04-24T05:23:28;10.40;99.90
1015;DHT22;8170;48.118;11.628;2023-04-24T05:24:32;10.40;99.90
1015;DHT22;8170;48.118;11.628;2023-04-24T05:25:35;10.50;99.90
1015;DHT22;8170;48.118;11.628;2023-04-24T05:26:46;10.50;99.90
1015;DHT22;8170;48.118;11.628;2023-04-24T05:27:51;10.60;99.90
1015;DHT22;8170;48.118;11.628;2023-04-24T05:28:55;10.60;99.90
1015;DHT22;8170;48.118;11.628;2023-04-24T05:29:57;10.70;99.90
1015;DHT22;8170;48.118;11.628;2023-04-24T05:31:00;10.70;99.90
1015;DHT22;8170;48.118;11.628;2023-04-24T05:32:03;10.60;99.90
1015;DHT22;8170;48.118;11.628;2023-04-24T05:33:06;10.60;99.90
1015;DHT22;8170;48.118;11.628;2023-04-24T05:34:10;10.50;99.90
1015;DHT22;8170;48.118;11.628;2023-04-24T05:35:17;10.40;99.90
1015;DHT22;8170;48.118;11.628;2023-04-24T05:36:21;10.40;99.90
1015;DHT22;8170;48.118;11.628;2023-04-24T05:37:23;10.40;99.90
1015;DHT22;8170;48.118;11.628;2023-04-24T05:38:29;10.30;99.90
1015;DHT22;8170;48.118;11.628;2023-04-24T05:39:31;10.20;99.90
1015;DHT22;8170;48.118;11.628;2023-04-24T05:40:34;10.20;99.90
1015;DHT22;8170;48.118;11.628;2023-04-24T05:41:36;10.30;99.90
1015;DHT22;8170;48.118;11.628;2023-04-24T05:42:39;10.20;99.90
1015;DHT22;8170;48.118;11.628;2023-04-24T05:43:42;10.30;99.90
1015;DHT22;8170;48.118;11.628;2023-04-24T05:44:45;10.20;99.90
1015;DHT22;8170;48.118;11.628;2023-04-24T05:45:47;10.30;99.90
1015;DHT22;8170;48.118;11.628;2023-04-24T05:46:52;10.30;99.90
1015;DHT22;8170;48.118;11.628;2023-04-24T05:47:54;10.40;99.90
1015;DHT22;8170;48.118;11.628;2023-04-24T05:48:57;10.30;99.90
1015;DHT22;8170;48.118;11.628;2023-04-24T05:50:00;10.30;99.90
1015;DHT22;8170;48.118;11.628;2023-04-24T05:51:04;10.30;99.90
1015;DHT22;8170;48.118;11.628;2023-04-24T05:52:06;10.40;99.90
1015;DHT22;8170;48.118;11.628;2023-04-24T05:53:12;10.40;99.90
1015;DHT22;8170;48.118;11.628;2023-04-24T05:54:15;10.40;99.90
1015;DHT22;8170;48.118;11.628;2023-04-24T05:55:18;10.40;99.90
1015;DHT22;8170;48.118;11.628;2023-04-24T05:56:22;10.50;99.90
1015;DHT22;8170;48.118;11.628;2023-04-24T05:57:25;10.50;99.90
1015;DHT22;8170;48.118;11.628;2023-04-24T05:58:33;10.50;99.90
1015;DHT22;8170;48.118;11.628;2023-04-24T05:59:37;10.40;99.90
1015;DHT22;8170;48.118;11.628;2023-04-24T06:00:41;10.40;99.90
1015;DHT22;8170;48.118;11.628;2023-04-24T06:01:44;10.40;99.90
1015;DHT22;8170;48.118;11.628;2023-04-24T06:02:51;10.50;99.90
1015;DHT22;8170;48.118;11.628;2023-04-24T06:03:55;10.50;99.90
1015;DHT22;8170;48.118;11.628;2023-04-24T06:05:00;10.50;99.90
1015;DHT22;8170;48.118;11.628;2023-04-24T06:06:02;10.50;99.90
1015;DHT22;8170;48.118;11.628;2023-04-24T06:07:06;10.50;99.90
1015;DHT22;8170;48.118;11.628;2023-04-24T06:08:09;10.50;99.90
1015;DHT22;8170;48.118;11.628;2023-04-24T06:09:16;10.50;99.90
1015;DHT22;8170;48.118;11.628;2023-04-24T06:10:19;10.40;99.90
1015;DHT22;8170;48.118;11.628;2023-04-24T06:11:22;10.50;99.90
1015;DHT22;8170;48.118;11.628;2023-04-24T06:12:26;10.60;99.90
1015;DHT22;8170;48.118;11.628;2023-04-24T06:13:35;10.60;99.90
1015;DHT22;8170;48.118;11.628;2023-04-24T06:15:07;10.50;99.90
1015;DHT22;8170;48.118;11.628;2023-04-24T06:16:30;10.60;99.90
1015;DHT22;8170;48.118;11.628;2023-04-24T06:17:40;10.70;99.90
1015;DHT22;8170;48.118;11.628;2023-04-24T06:18:43;10.80;99.90
1015;DHT22;8170;48.118;11.628;2023-04-24T06:19:45;10.80;99.90
1015;DHT22;8170;48.118;11.628;2023-04-24T06:20:49;10.90;99.90
1015;DHT22;8170;48.118;11.628;2023-04-24T06:21:51;10.90;99.90
1015;DHT22;8170;48.118;11.628;2023-04-24T06:22:54;11.00;99.90
1015;DHT22;8170;48.118;11.628;2023-04-24T06:23:58;11.10;99.90
1015;DHT22;8170;48.118;11.628;2023-04-24T06:25:02;11.10;99.90
1015;DHT22;8170;48.118;11.628;2023-04-24T06:26:05;11.20;99.90
1015;DHT22;8170;48.118;11.628;2023-04-24T06:27:07;11.30;99.90
1015;DHT22;8170;48.118;11.628;2023-04-24T06:28:10;11.30;99.90
1015;DHT22;8170;48.118;11.628;2023-04-24T06:29:13;11.30;99.90
1015;DHT22;8170;48.118;11.628;2023-04-24T06:30:16;11.20;99.90
1015;DHT22;8170;48.118;11.628;2023-04-24T06:31:19;11.20;99.90
1015;DHT22;8170;48.118;11.628;2023-04-24T06:32:22;11.30;99.90
1015;DHT22;8170;48.118;11.628;2023-04-24T06:33:26;11.40;99.90
1015;DHT22;8170;48.118;11.628;2023-04-24T06:34:28;11.40;99.90
1015;DHT22;8170;48.118;11.628;2023-04-24T06:35:32;11.40;99.90
1015;DHT22;8170;48.118;11.628;2023-04-24T06:36:35;11.40;99.90
1015;DHT22;8170;48.118;11.628;2023-04-24T06:37:39;11.40;99.90
1015;DHT22;8170;48.118;11.628;2023-04-24T06:38:42;11.50;99.90
1015;DHT22;8170;48.118;11.628;2023-04-24T06:39:44;11.40;99.90
1015;DHT22;8170;48.118;11.628;2023-04-24T06:40:49;11.30;99.90
1015;DHT22;8170;48.118;11.628;2023-04-24T06:41:52;11.20;99.90
1015;DHT22;8170;48.118;11.628;2023-04-24T06:42:56;11.20;99.90
1015;DHT22;8170;48.118;11.628;2023-04-24T06:43:59;11.30;99.90
1015;DHT22;8170;48.118;11.628;2023-04-24T06:45:03;11.30;99.90
1015;DHT22;8170;48.118;11.628;2023-04-24T06:46:06;11.30;99.90
1015;DHT22;8170;48.118;11.628;2023-04-24T06:47:09;11.40;99.90
1015;DHT22;8170;48.118;11.628;2023-04-24T06:48:15;11.50;99.90
1015;DHT22;8170;48.118;11.628;2023-04-24T06:49:17;11.60;99.90
1015;DHT22;8170;48.118;11.628;2023-04-24T06:50:21;11.70;99.90
1015;DHT22;8170;48.118;11.628;2023-04-24T06:51:23;11.80;99.90
1015;DHT22;8170;48.118;11.628;2023-04-24T06:52:27;11.90;99.90
1015;DHT22;8170;48.118;11.628;2023-04-24T06:53:30;11.90;99.90
1015;DHT22;8170;48.118;11.628;2023-04-24T06:54:33;12.00;99.90
1015;DHT22;8170;48.118;11.628;2023-04-24T06:55:37;12.00;99.90
1015;DHT22;8170;48.118;11.628;2023-04-24T06:56:42;12.00;99.90
1015;DHT22;8170;48.118;11.628;2023-04-24T06:57:49;12.00;99.90
1015;DHT22;8170;48.118;11.628;2023-04-24T06:58:56;12.00;99.90